Weather History for KTTF - March, 2015

Change the Weather History Date:

Tuesday, March 24, 2015

  Actual Average Record
Temperature  
Mean Temperature 27 °F -  
Max Temperature 35 °F 47 °F 74 °F (1988)
Min Temperature 19 °F 28 °F 6 °F (1940)
Degree Days  
Heating Degree Days 38    
Moisture  
Dew Point 18 °F    
Average Humidity 69    
Maximum Humidity 86    
Minimum Humidity 48    
Precipitation  
Precipitation 0.00 in - - ()
Sea Level Pressure  
Sea Level Pressure 30.29 in    
Wind  
Wind Speed 6 mph (ENE)    
Max Wind Speed 9 mph    
Max Gust Speed 9 mph    
Visibility 10 miles    
Events      
Averages and records for this station are not official NWS values.
T = Trace of Precipitation, MM = Missing Value Source: NWS Daily Summary

Daily Weather History Graph

Daily Weather History Graph

Search for Another Location

Airport or City:

Trip Planner

Search our weather history database for the weather conditions in past years. The results will help you decide how hot, cold, wet, or windy it might be!

Date:

Astronomy

Mar. 24, 2015 Rise Set
Actual Time 7:30 AM EDT 7:50 PM EDT
Civil Twilight 7:02 AM EDT 8:18 PM EDT
Nautical Twilight 6:29 AM EDT 8:50 PM EDT
Astronomical Twilight 5:56 AM EDT 9:24 PM EDT
Moon 10:22 AM EDT No Moon Set
Length of Visible Light 13h 15m
Length of Day
12h 19m
Waxing Crescent, 23% of the Moon is Illuminated
Mar 24
Waxing Crescent
Mar 27
First Quarter
Apr 4
Full
Apr 11
Last Quarter
Apr 18
New

Hourly Weather History & Observations

Time (EDT) Temp. Windchill Dew Point Humidity Pressure Visibility Wind Dir Wind Speed Gust Speed Precip Events Conditions
12:13 AM 24.8 °F 17.9 °F 15.8 °F 69% 30.30 in 10.0 mi NE 5.8 mph - N/A   Overcast
12:33 AM 24.8 °F 16.1 °F 15.8 °F 69% 30.30 in 10.0 mi NE 8.1 mph - N/A   Overcast
12:53 AM 24.8 °F 17.9 °F 15.8 °F 69% 30.29 in 10.0 mi ENE 5.8 mph - N/A   Overcast
1:13 AM 23.0 °F 13.1 °F 15.8 °F 74% 30.29 in 10.0 mi ENE 9.2 mph - N/A   Overcast
1:35 AM 23.0 °F 13.9 °F 15.8 °F 74% 30.30 in 10.0 mi NE 8.1 mph - N/A   Overcast
1:55 AM 23.0 °F 17.0 °F 15.8 °F 74% 30.30 in 10.0 mi ENE 4.6 mph - N/A   Overcast
2:15 AM 21.2 °F 14.9 °F 15.8 °F 80% 30.30 in 10.0 mi NE 4.6 mph - N/A   Mostly Cloudy
2:33 AM 21.2 °F 12.6 °F 15.8 °F 80% 30.29 in 10.0 mi NE 6.9 mph - N/A   Clear
2:53 AM 21.2 °F 16.4 °F 15.8 °F 80% 30.30 in 10.0 mi NE 3.5 mph - N/A   Clear
3:13 AM 21.2 °F 14.9 °F 15.8 °F 80% 30.30 in 10.0 mi NE 4.6 mph - N/A   Clear
3:17 AM 21.2 °F 14.9 °F 15.8 °F 80% 30.30 in 10.0 mi NNE 4.6 mph - N/A   Clear
3:48 AM 19.4 °F 14.3 °F 15.8 °F 86% 30.30 in 10.0 mi NNE 3.5 mph - N/A   Clear
4:13 AM 19.4 °F 14.3 °F 15.8 °F 86% 30.29 in 10.0 mi NE 3.5 mph - N/A   Clear
4:33 AM 19.4 °F 14.3 °F 15.8 °F 86% 30.28 in 10.0 mi NE 3.5 mph - N/A   Clear
4:46 AM 19.4 °F 14.3 °F 15.8 °F 86% 30.29 in 10.0 mi NNE 3.5 mph - N/A   Clear
5:13 AM 19.4 °F 14.3 °F 15.8 °F 86% 30.29 in 10.0 mi NNE 3.5 mph - N/A   Clear
5:35 AM 19.4 °F 12.8 °F 15.8 °F 86% 30.29 in 10.0 mi NNE 4.6 mph - N/A   Clear
5:55 AM 19.4 °F 12.8 °F 14.0 °F 80% 30.30 in 10.0 mi NNE 4.6 mph - N/A   Clear
6:15 AM 19.4 °F 12.8 °F 15.8 °F 86% 30.31 in 10.0 mi NNE 4.6 mph - N/A   Clear
6:29 AM 19.4 °F 14.3 °F 15.8 °F 86% 30.31 in 10.0 mi NNE 3.5 mph - N/A   Clear
6:34 AM 19.4 °F 12.8 °F 15.8 °F 86% 30.31 in 10.0 mi North 4.6 mph - N/A   Clear
6:53 AM 19.4 °F 12.8 °F 15.8 °F 86% 30.31 in 10.0 mi NNE 4.6 mph - N/A   Clear
7:14 AM 19.4 °F 14.3 °F 15.8 °F 86% 30.32 in 10.0 mi NNE 3.5 mph - N/A   Clear
7:34 AM 19.4 °F 12.8 °F 15.8 °F 86% 30.32 in 10.0 mi North 4.6 mph - N/A   Clear
7:54 AM 19.4 °F 14.3 °F 15.8 °F 86% 30.33 in 10.0 mi NNE 3.5 mph - N/A   Clear
8:14 AM 19.4 °F 14.3 °F 15.8 °F 86% 30.33 in 10.0 mi NNE 3.5 mph - N/A   Clear
8:27 AM 19.4 °F 12.8 °F 15.8 °F 86% 30.32 in 10.0 mi NNE 4.6 mph - N/A   Clear
8:56 AM 23.0 °F 14.7 °F 17.6 °F 80% 30.33 in 10.0 mi ENE 6.9 mph - N/A   Clear
9:16 AM 24.8 °F 16.9 °F 17.6 °F 74% 30.33 in 10.0 mi NE 6.9 mph - N/A   Clear
9:36 AM 24.8 °F 16.9 °F 17.6 °F 74% 30.33 in 10.0 mi ENE 6.9 mph - N/A   Clear
9:51 AM 26.6 °F 19.1 °F 19.4 °F 74% 30.33 in 10.0 mi East 6.9 mph - N/A   Clear
10:11 AM 26.6 °F 18.2 °F 17.6 °F 69% 30.33 in 10.0 mi ESE 8.1 mph - N/A   Clear
10:32 AM 28.4 °F 22.2 °F 17.6 °F 64% 30.33 in 10.0 mi ESE 5.8 mph - N/A   Clear
10:52 AM 30.2 °F 24.3 °F 17.6 °F 60% 30.34 in 10.0 mi East 5.8 mph - N/A   Clear
11:12 AM 30.2 °F 23.4 °F 17.6 °F 60% 30.34 in 10.0 mi NE 6.9 mph - N/A   Clear
11:32 AM 30.2 °F 22.6 °F 17.6 °F 60% 30.34 in 10.0 mi East 8.1 mph - N/A   Clear
11:52 AM 30.2 °F 23.4 °F 15.8 °F 55% 30.34 in 10.0 mi ENE 6.9 mph - N/A   Clear
12:12 PM 32.0 °F 25.6 °F 15.8 °F 51% 30.34 in 10.0 mi SE 6.9 mph - N/A   Clear
12:32 PM 32.0 °F 26.4 °F 15.8 °F 51% 30.34 in 10.0 mi ESE 5.8 mph - N/A   Clear
12:52 PM 33.8 °F 27.7 °F 17.6 °F 52% 30.33 in 10.0 mi SE 6.9 mph - N/A   Clear
1:12 PM 33.8 °F 27.0 °F 17.6 °F 52% 30.33 in 10.0 mi SE 8.1 mph - N/A   Clear
1:32 PM 33.8 °F 28.6 °F 17.6 °F 52% 30.33 in 10.0 mi ESE 5.8 mph 9.2 mph N/A   Clear
1:52 PM 33.8 °F 27.0 °F 17.6 °F 52% 30.33 in 10.0 mi East 8.1 mph - N/A   Clear
2:12 PM 33.8 °F 26.4 °F 19.4 °F 56% 30.32 in 10.0 mi ESE 9.2 mph - N/A   Clear
2:33 PM 35.6 °F 29.9 °F 19.4 °F 52% 30.31 in 10.0 mi ESE 6.9 mph - N/A   Clear
2:41 PM 33.8 °F 27.0 °F 19.4 °F 56% 30.31 in 10.0 mi East 8.1 mph - N/A   Clear
3:13 PM 33.8 °F 28.6 °F 19.4 °F 56% 30.30 in 10.0 mi ESE 5.8 mph - N/A   Clear
3:33 PM 33.8 °F 26.4 °F 19.4 °F 56% 30.30 in 10.0 mi ESE 9.2 mph - N/A   Clear
3:51 PM 35.6 °F 30.7 °F 19.4 °F 52% 30.29 in 10.0 mi East 5.8 mph - N/A   Clear
4:13 PM 35.6 °F 29.9 °F 19.4 °F 52% 30.29 in 10.0 mi ESE 6.9 mph - N/A   Clear
4:33 PM 35.6 °F 29.2 °F 19.4 °F 52% 30.28 in 10.0 mi SE 8.1 mph - N/A   Clear
4:53 PM 35.6 °F 29.2 °F 19.4 °F 52% 30.28 in 10.0 mi ESE 8.1 mph - N/A   Clear
5:14 PM 35.6 °F 29.9 °F 19.4 °F 52% 30.27 in 10.0 mi East 6.9 mph - N/A   Clear
5:34 PM 35.6 °F 29.2 °F 19.4 °F 52% 30.26 in 10.0 mi ESE 8.1 mph - N/A   Clear
5:54 PM 35.6 °F 29.2 °F 17.6 °F 48% 30.26 in 10.0 mi East 8.1 mph - N/A   Clear
6:14 PM 33.8 °F 27.0 °F 17.6 °F 52% 30.26 in 10.0 mi ESE 8.1 mph - N/A   Clear
6:34 PM 33.8 °F 27.0 °F 17.6 °F 52% 30.26 in 10.0 mi ESE 8.1 mph - N/A   Clear
6:54 PM 32.0 °F 25.6 °F 15.8 °F 51% 30.25 in 10.0 mi East 6.9 mph - N/A   Clear
7:14 PM 30.2 °F 25.4 °F 15.8 °F 55% 30.25 in 10.0 mi ESE 4.6 mph - N/A   Clear
7:34 PM 30.2 °F 22.6 °F 15.8 °F 55% 30.25 in 10.0 mi East 8.1 mph - N/A   Clear
7:54 PM 28.4 °F 21.2 °F 19.4 °F 69% 30.24 in 10.0 mi East 6.9 mph - N/A   Clear
8:15 PM 28.4 °F 19.7 °F 19.4 °F 69% 30.25 in 10.0 mi ESE 9.2 mph - N/A   Clear
8:34 PM 28.4 °F 20.4 °F 19.4 °F 69% 30.23 in 10.0 mi East 8.1 mph - N/A   Clear
8:55 PM 28.4 °F 20.4 °F 19.4 °F 69% 30.23 in 10.0 mi East 8.1 mph - N/A   Clear
9:15 PM 28.4 °F 19.7 °F 19.4 °F 69% 30.22 in 10.0 mi East 9.2 mph - N/A   Clear
9:35 PM 28.4 °F 21.2 °F 19.4 °F 69% 30.22 in 10.0 mi East 6.9 mph - N/A   Clear
9:55 PM 28.4 °F 20.4 °F 19.4 °F 69% 30.21 in 10.0 mi East 8.1 mph - N/A   Clear
10:15 PM 28.4 °F 22.2 °F 21.2 °F 74% 30.21 in 10.0 mi East 5.8 mph - N/A   Clear
10:35 PM 28.4 °F 23.3 °F 21.2 °F 74% 30.21 in 10.0 mi East 4.6 mph - N/A   Clear
10:55 PM 28.4 °F 21.2 °F 21.2 °F 74% 30.20 in 10.0 mi East 6.9 mph - N/A   Clear
11:15 PM 28.4 °F 20.4 °F 23.0 °F 80% 30.20 in 10.0 mi East 8.1 mph - N/A   Clear
11:36 PM 28.4 °F 21.2 °F 23.0 °F 80% 30.19 in 10.0 mi East 6.9 mph - N/A   Clear
11:56 PM 28.4 °F 21.2 °F 23.0 °F 80% 30.18 in 10.0 mi East 6.9 mph - N/A   Clear